Terminal Aerodrome Forecast
Issued by NWS Quad Cities IA IL

Home | Current Version | Previous Version | Text Only | Print | Product List | Glossary On
Versions: 1 2 3 4 5 6 7 8 9 10 11 12 13 14 15 16 17 18 19 20 21 22 23 24 25
047
FTUS43 KDVN 242330
TAFDBQ
TAF
KDBQ 242330Z 2500/2524 01008KT P6SM SCT015 BKN025
     FM250600 01006KT 4SM BR SCT030
     FM250900 36005KT 2SM BR BKN012
     FM251500 35007KT P6SM BKN015
     FM251800 34006KT P6SM BKN040
     FM252100 33004KT P6SM SCT050=

USA.gov is the U.S. government's official web portal to all federal, state and local government web resources and services.